x

9410840 - Santa Monica Pier (icac1) Weather Station

12:30 - Sun 23rd Apr 2017 All times are PDT. -7 hours from GMT.

  • Wind
    3mph, 7mph gusts
  • Sea Temp 64°f
  • Luft Temp 63°f
  • Sea Pressure 1010.8mb
  • 9410840 - Santa Monica Pier
  • 9410840 - Santa Monica Pier

More Historic Weather Station data

Upgrade to MSW Pro to gain access to the past 30 days of data for over 8000 Wavebouys and Weather Stations around the globe.

Join Pro

Comparision Forecast

View Surf forecast
   
So 04/23 12:30 3 7 mph 1010.8mb 64f 63f
12:24 6 8 mph 1010.9mb 64f 63f
12:18 6 9 mph 1010.9mb 64f 62f
12:12 8 10 mph 1010.9mb 64f 62f
12:06 9 11 mph 1011mb 64f 63f
12:00 8 10 mph 1010.9mb 64f 63f
Sa 04/22 11:54 6 8 mph 1010.8mb 64f 64f
11:48 6 7 mph - - -
11:42 3 5 mph 1010.6mb 64f 64f
11:36 5
mph
1010.7mb 63f 64f
11:30 3 6 mph 1010.7mb 63f 64f
11:24 5 6 mph 1010.7mb 64f 64f
11:18 6 8 mph 1010.9mb 64f 64f
11:12 7 13 mph 1010.7mb 64f 64f
11:06 10 11 mph 1010.3mb 64f 64f
11:00 9 11 mph 1010.4mb 64f 64f
10:54 9 11 mph 1010.4mb 64f 64f
10:48 9 11 mph 1010.4mb 64f 64f
10:42 10 13 mph 1010.3mb 64f 64f
10:36 7 9 mph 1010.4mb 64f 64f
10:30 6 9 mph 1010.5mb 64f 64f
10:24 6 10 mph 1010.6mb 64f 64f
10:18 7 9 mph 1010.4mb 63f 64f
10:12 7 10 mph 1010.5mb 63f 64f
10:06 9 10 mph 1010.5mb 63f 64f
10:00 9 11 mph 1010.4mb 63f 64f
9:54 7 9 mph 1010.5mb 63f 64f
9:48 7 9 mph 1010.5mb 63f 64f
9:42 5 11 mph 1010.4mb 63f 64f
9:36 8 11 mph 1010.4mb 64f 64f
9:30 8 11 mph 1010.3mb 63f 64f
9:24 9 10 mph 1010.4mb 63f 63f
9:18 6 8 mph 1010.4mb 63f 63f
9:12 6 7 mph 1010.4mb 63f 63f
9:06 7 9 mph 1010.4mb 63f 63f
9:00 9 13 mph 1010.3mb 63f 63f
8:54 10 14 mph 1010.3mb 63f 63f
8:48 11 13 mph - - -
8:42 10 13 mph 1010.4mb 62f 63f
8:36 10 11 mph 1010.3mb 62f 63f
8:30 11 13 mph 1010.2mb 62f 63f
8:24 10 13 mph 1010.2mb 62f 63f
8:18 8 9 mph 1010.2mb 62f 63f
8:12 8 9 mph 1010.2mb 61f 62f
8:06 8
mph
1010.1mb 61f 62f
8:00 7
mph
1010.1mb 61f 62f
7:54 6 7 mph 1010.1mb 61f 62f
7:48 3
mph
1010.1mb 61f 62f
7:42 3 5 mph 1010mb 61f 63f
7:36 3 5 mph 1010mb 61f 63f
7:30 3 5 mph 1010.1mb 61f 63f
7:24 5 6 mph 1010.1mb 61f 63f
7:18 3 6 mph - - -
7:12 5 6 mph 1010.1mb 61f 63f
7:06 5
mph
1010.2mb 61f 63f
7:00 5 6 mph 1010.2mb 61f 63f
6:54 6
mph
1010.2mb 61f 64f
6:48 6 7 mph - - -
6:42 5 6 mph 1010.3mb 61f 64f
6:36 6
mph
1010.3mb 61f 65f
6:30 5 6 mph 1010.3mb 62f 65f
6:24 5 7 mph 1010.4mb 62f 65f
6:18 6 7 mph - - -
6:12 6 7 mph 1010.4mb 62f 65f
6:06 6 7 mph 1010.4mb 62f 65f
6:00 6 7 mph 1010.4mb 62f 65f
5:48 3 5 mph - - -
5:42 3 7 mph 1010.5mb 63f 65f
5:36 7 9 mph 1010.5mb 64f 65f
5:30 7 9 mph 1010.5mb 64f 65f
5:24 5 7 mph 1010.5mb 64f 65f
5:18 6 7 mph - - -
5:12 7 11 mph 1010.6mb 64f 64f
5:06 10 14 mph 1010.6mb 64f 64f
5:00 14 15 mph 1010.6mb 64f 64f
4:48 10 14 mph - - -
4:36 13 14 mph 1010.6mb 64f 65f
4:30 11 13 mph 1010.6mb 64f 65f
4:24 8 10 mph 1010.6mb 64f 66f
4:00 6 8 mph 1010.6mb 64f 65f
3:48 7 9 mph - - -
3:42 7 10 mph 1010.8mb 64f 64f
3:36 8 9 mph 1010.9mb 64f 65f
3:30 7 9 mph 1010.9mb 64f 65f
3:24 6 7 mph 1011mb 64f 65f
3:18 6 7 mph - - -
3:12 5 6 mph 1011.2mb 64f 66f
3:06 3 5 mph 1011.2mb 64f 66f
3:00 3 5 mph 1011.3mb 63f 66f
2:54 3 5 mph 1011.3mb 63f 66f
2:48 3 5 mph - - -
2:42 3 5 mph 1011.4mb 63f 65f
2:36 5 6 mph 1011.5mb 63f 65f
2:30 5 7 mph 1011.5mb 63f 65f
2:24 6
mph
1011.6mb 63f 64f
2:18 6 7 mph - - -
2:12 6 7 mph 1011.6mb 63f 64f
2:06 5 6 mph 1011.6mb 63f 64f
2:00 5 6 mph 1011.6mb 63f 64f
1:54 5 6 mph 1011.6mb 63f 64f
1:48 6 7 mph 1011.6mb 63f 64f
1:42 6 7 mph 1011.7mb 63f 64f
1:36 7 8 mph 1011.7mb 63f 64f
1:30 7 9 mph 1011.7mb 63f 63f
1:24 7 9 mph 1011.8mb 63f 63f
1:18 9 10 mph 1011.8mb 63f 63f
1:12 9
mph
1011.8mb 63f 63f
1:06 8 10 mph 1011.9mb 63f 63f
1:00 9 10 mph 1011.9mb 63f 63f
12:54 9 10 mph 1012mb 62f 64f
12:48 9 10 mph 1012mb 62f 64f
12:42 8 9 mph 1012.1mb 62f 64f
12:36 8 9 mph 1012.1mb 62f 64f
12:30 7 8 mph 1012.1mb 62f 65f
12:24 6 7 mph 1012.1mb 62f 65f
12:18 7 8 mph 1012.2mb 62f 65f
12:12 7
mph
1012.2mb 62f 65f
12:06 7
mph
1012.2mb 62f 65f
12:00 7
mph
1012.3mb 62f 65f
11:54 7
mph
1012.4mb 62f 65f
11:48 7
mph
1012.4mb 62f 65f
11:42 7
mph
1012.5mb 62f 65f
11:36 6
mph
1012.5mb 62f 65f
11:30 6
mph
1012.6mb 62f 65f
11:24 5 6 mph 1012.6mb 62f 65f
11:18 5 6 mph 1012.6mb 62f 65f
11:12 3 5 mph 1012.6mb 62f 65f
11:06 3 5 mph 1012.7mb 62f 65f
11:00 3 5 mph 1012.7mb 62f 65f
10:54 3 5 mph 1012.7mb 62f 65f
10:48 5
mph
1012.7mb 62f 64f
10:42 5
mph
1012.8mb 62f 64f
10:36 3
mph
1012.7mb 62f 65f
10:30 3
mph
1012.7mb 61f 65f
10:24 2 3 mph 1012.7mb 61f 65f
10:18 2 3 mph 1012.7mb 61f 65f
10:12 2 3 mph 1012.7mb 61f 65f
10:06 2 3 mph 1012.7mb 61f 65f
10:00 2 3 mph 1012.7mb 61f 65f
9:54 3
mph
1012.7mb 61f 65f
9:48 3 5 mph 1012.7mb 61f 64f
9:42 3 5 mph 1012.7mb 61f 64f
9:36 5
mph
1012.7mb 61f 64f
9:30 3 5 mph 1012.7mb 61f 64f
9:24 2 3 mph 1012.7mb 61f 64f
9:18 3 5 mph 1012.7mb 61f 64f
9:12 3 5 mph 1012.7mb 61f 63f
9:06 3 5 mph 1012.7mb 61f 63f
9:00 3 5 mph 1012.7mb 61f 63f
8:54 3 5 mph 1012.7mb 61f 63f
8:48 5
mph
1012.7mb 61f 63f
8:42 3 5 mph 1012.7mb 61f 63f
8:36 3
mph
1012.7mb 61f 63f
8:30 3
mph
1012.7mb 61f 63f
8:24 5
mph
1012.6mb 61f 63f
8:18 3
mph
1012.6mb 61f 63f
8:06 2
mph
1012.5mb 61f 63f
8:00 2
mph
1012.4mb 61f 63f
7:54 2
mph
1012.5mb 61f 63f
7:48 1 2 mph - - -
7:42 2
mph
1012.5mb 61f 63f
7:36 2 3 mph 1012.4mb 61f 64f
7:30  -  1 mph 1012.3mb 61f 65f
7:24  -  1 mph 1012.3mb 61f 65f
7:18  -  1 mph 1012.2mb 61f 64f
7:12  -  1 mph 1012.1mb 61f 65f
7:06  -  2 mph 1012mb 61f 64f
7:00 2
mph
1012mb 61f 64f
6:54 1 2 mph 1011.9mb 61f 63f
6:48 1 2 mph 1011.9mb 61f 63f
6:42 1 2 mph 1011.9mb 61f 63f
6:36  -  3 mph 1011.9mb 61f 63f
6:30 3
mph
1011.8mb 61f 63f
6:24 3
mph
1011.8mb 61f 63f
6:18 3 5 mph 1011.8mb 61f 63f
6:12 5
mph
1011.7mb 61f 63f
6:06 3 5 mph 1011.6mb 61f 63f
6:00 5 6 mph 1011.6mb 61f 63f
5:48 3 5 mph 1011.5mb 61f 63f
5:42 5
mph
1011.5mb 61f 63f
5:36 3 5 mph 1011.4mb 61f 63f
5:30 3
mph
1011.5mb 61f 63f
5:24 2 3 mph 1011.5mb 61f 63f
5:18 1 2 mph 1011.6mb 61f 63f
5:12 2 3 mph 1011.7mb 61f 64f
5:06 3 5 mph 1011.6mb 61f 64f
5:00 3 5 mph 1011.7mb 61f 64f
4:54 5 6 mph 1011.7mb 61f 64f
4:48 5 6 mph 1011.6mb 61f 64f
4:42 5 6 mph 1011.7mb 61f 64f
4:36 5 6 mph 1011.7mb 61f 64f
4:30 5 6 mph 1011.7mb 61f 64f
4:24 5 7 mph 1011.7mb 61f 64f
4:18 5 8 mph 1011.6mb 61f 64f
4:12 6 9 mph 1011.6mb 61f 64f
4:06 6 8 mph 1011.6mb 61f 64f
4:00 5 8 mph 1011.6mb 61f 64f
3:54 5 8 mph 1011.6mb 61f 64f
3:48 6 8 mph 1011.6mb 61f 64f
3:42 5 6 mph 1011.6mb 61f 64f
3:36 5 8 mph 1011.5mb 61f 64f
3:30 6 7 mph 1011.5mb 61f 64f
3:24 5 7 mph 1011.5mb 61f 64f
3:18 5 7 mph 1011.5mb 61f 64f
3:12 5 6 mph 1011.4mb 61f 64f
3:06 6 7 mph 1011.3mb 61f 64f
3:00 5 8 mph 1011.4mb 61f 64f
2:54 6 7 mph 1011.4mb 61f 64f
2:48 3 6 mph 1011.3mb 61f 64f
2:42 5 6 mph 1011.3mb 61f 65f
2:36 5 8 mph 1011.3mb 61f 65f
2:30 6 8 mph 1011.3mb 61f 65f
2:24 6 7 mph 1011.4mb 61f 65f
2:18 6 8 mph 1011.4mb 61f 65f
2:12 7 9 mph 1011.5mb 61f 66f
2:06 6 8 mph 1011.5mb 61f 66f
2:00 5 8 mph 1011.5mb 61f 66f
1:54 6 9 mph 1011.6mb 61f 66f
1:48 6 10 mph 1011.6mb 61f 66f
1:42 7 10 mph 1011.6mb 61f 67f
1:36 7 9 mph 1011.6mb 61f 67f
1:30 7 9 mph 1011.6mb 61f 68f
1:24 7 9 mph 1011.7mb 61f 68f
1:18 7 9 mph 1011.7mb 61f 69f
1:12 7 10 mph 1011.6mb 61f 69f
1:06 9 11 mph 1011.6mb 61f 69f
1:00 6 9 mph 1011.7mb 61f 68f
12:54 7 10 mph 1011.7mb 61f 68f
12:48 7 9 mph 1011.7mb 61f 68f
12:42 7 9 mph 1011.6mb 61f 68f
12:36 6 8 mph 1011.5mb 61f 68f
12:30 6 8 mph 1011.5mb 61f 67f
12:24 6 7 mph 1011.5mb 61f 67f
12:18 6 7 mph 1011.4mb 61f 66f
12:12 7
mph
1011.4mb 61f 65f
12:06 5
mph
1011.4mb 61f 65f
12:00 5 7 mph 1011.5mb 61f 65f
Fr 04/21 11:54 7 8 mph 1011.5mb 61f 65f
11:48 9 11 mph 1011.4mb 61f 65f
11:42 9 10 mph 1011.3mb 61f 64f
11:36 9 10 mph 1011.2mb 61f 64f
11:30 9
mph
1011.2mb 61f 64f
11:24 8 9 mph 1011.2mb 61f 64f
11:18 7 8 mph 1011.2mb 61f 64f
11:12 6 7 mph 1011.1mb 62f 64f
11:06 6
mph
1011.1mb 61f 65f
11:00 6
mph
1011.1mb 61f 65f
10:54 1 5 mph 1011.1mb 61f 66f
10:48 3
mph
1011mb 61f 66f
10:42 2 3 mph 1011mb 61f 68f
10:36 2 5 mph 1010.9mb 61f 67f
10:30 5 6 mph 1010.9mb 61f 67f
10:24 5 6 mph 1010.9mb 61f 66f
10:18 6
mph
1010.9mb 61f 66f
10:12 5
mph
1010.9mb 61f 66f
10:06 3
mph
1010.9mb 61f 65f
10:00 2
mph
1010.9mb 61f 65f
9:54 1
mph
1011mb 61f 66f
9:48  -  1 mph 1010.9mb 61f 66f
9:42  -  mph 1011mb 61f 65f
9:36  -  1 mph 1011mb 61f 66f
9:30 2 3 mph 1010.9mb 61f 67f
9:24 2 3 mph 1010.9mb 61f 67f
9:18 5
mph
1010.9mb 61f 67f
9:12 3 6 mph 1010.8mb 60f 67f
9:06 5 6 mph 1010.7mb 61f 68f
9:00 1 2 mph 1010.6mb 61f 71f
8:54 2
mph
1010.6mb 62f 72f
8:48 2 5 mph 1010.6mb 62f 73f
8:42 3 5 mph 1010.5mb 62f 71f
8:36 6 7 mph 1010.4mb 62f 69f
8:30 5
mph
1010.4mb 62f 69f
8:24 2 3 mph 1010.3mb 62f 70f
8:18 3
mph
1010.3mb 62f 68f
8:12  -  1 mph 1010.2mb 63f 68f
8:06  -  2 mph 1010.2mb 63f 68f
8:00 1 6 mph 1010.2mb 63f 68f
7:54 5 6 mph 1010.1mb 63f 69f
7:48 2
mph
1010.1mb 62f 69f
7:42 2
mph
1010mb 62f 68f
7:36 2 3 mph 1009.9mb 62f 68f
7:30 2 6 mph 1009.9mb 62f 68f
7:24 3
mph
1009.9mb 62f 69f
7:18 2 3 mph - - -
7:12 3 9 mph 1009.9mb 62f 69f
7:06 9 11 mph 1009.9mb 62f 70f
7:00 8 10 mph 1009.8mb 62f 69f
6:54 5 10 mph 1010mb 62f 70f
6:48 8 10 mph - - -
6:42 8 9 mph 1010.1mb 62f 69f
6:36 6 9 mph 1010.1mb 62f 70f
6:30 7 10 mph 1010.2mb 62f 70f
6:24 7 8 mph 1010.1mb 62f 70f
6:18 8 10 mph 1010.2mb 62f 69f
6:12 8 9 mph 1010.2mb 62f 69f
6:06 6 9 mph 1010.3mb 62f 69f
6:00 7 9 mph 1010.3mb 62f 69f
5:48 7 9 mph - - -
5:42 7 8 mph 1010.4mb 63f 69f
5:36 5 7 mph 1010.5mb 63f 69f
5:30 5 8 mph 1010.6mb 63f 69f
5:24 7 9 mph 1010.7mb 63f 68f
5:18 6 9 mph - - -
5:12 7 9 mph 1010.8mb 63f 67f
5:06 6 8 mph 1010.9mb 63f 67f
5:00 5 6 mph 1010.9mb 63f 67f
4:48 6 8 mph - - -
4:42 8 10 mph 1011mb 63f 67f
4:36 6 8 mph 1011.1mb 63f 67f
4:30 7 9 mph 1011.2mb 63f 68f
4:24 5 6 mph 1011.3mb 63f 67f
4:00 3
mph
1011.5mb 63f 65f
3:54 2 5 mph 1011.7mb 63f 65f
3:48 3
mph
- - -
3:42 3
mph
1011.8mb 63f 65f
3:36 3 5 mph 1011.8mb 63f 65f
3:30 3 5 mph 1011.9mb 63f 65f
3:24 3 5 mph 1012mb 63f 65f
3:18 3 5 mph - - -
3:12 5
mph
1012.1mb 63f 66f
3:06 3 5 mph 1012.1mb 63f 67f
3:00 5 6 mph 1012.2mb 63f 66f
2:48 5 6 mph - - -
2:42 3 6 mph 1012.5mb 63f 66f
2:36 6 7 mph 1012.6mb 63f 64f
2:30 7 8 mph 1012.7mb 63f 64f
2:24 6
mph
1012.8mb 63f 64f
2:18 5 7 mph 1012.9mb 62f 65f
2:06 6 8 mph 1013.2mb 62f 63f
2:00 7 8 mph 1013.2mb 62f 62f
1:54 8 10 mph 1013.3mb 62f 62f
1:48 9 11 mph - - -
1:42 10 11 mph 1013.4mb 62f 62f
1:36 8 9 mph 1013.5mb 62f 63f
1:30 7 9 mph 1013.5mb 62f 63f
1:24 7 9 mph 1013.6mb 62f 63f
1:18 7 9 mph 1013.4mb 62f 63f
1:06 8 9 mph 1013.4mb 61f 62f
1:00 9 10 mph 1013.5mb 61f 62f
12:54 9 10 mph 1013.4mb 61f 62f
12:48 9 10 mph 1013.4mb 61f 62f
12:42 8
mph
1013.4mb 61f 63f
12:36 7 8 mph 1013.5mb 61f 62f
12:30 6 7 mph 1013.5mb 61f 62f
12:24 6 7 mph 1013.5mb 61f 62f
12:18 6 7 mph 1013.5mb 61f 62f
12:06 6
mph
1013.6mb 61f 62f
12:00 6
mph
1013.5mb 60f 62f
11:54 5 6 mph 1013.6mb 60f 62f
11:48 5 6 mph 1013.6mb 60f 62f
11:42 6 7 mph 1013.7mb 60f 62f
11:36 6 7 mph 1013.7mb 60f 62f
11:30 7
mph
1013.7mb 60f 62f
11:24 6
mph
1013.8mb 60f 63f
11:18 5 7 mph 1013.8mb 60f 63f
11:12 6 7 mph 1013.7mb 60f 63f
11:06 7
mph
1013.8mb 60f 62f
11:00 7
mph
1013.8mb 60f 62f
10:54 7 8 mph 1013.8mb 60f 62f
10:48 7 8 mph 1013.9mb 60f 62f
10:42 5 6 mph 1013.9mb 60f 62f
10:36 5 7 mph 1013.9mb 60f 62f
10:30 6 7 mph 1013.9mb 60f 62f
10:24 6 7 mph 1013.8mb 60f 62f
10:18 5 6 mph 1013.9mb 60f 62f
10:12 6 7 mph 1013.8mb 60f 62f
10:06 6 7 mph 1013.7mb 60f 62f
10:00 5 7 mph 1013.7mb 60f 62f
9:54 3 5 mph 1013.6mb 59f 64f
9:48  -  6 mph 1013.5mb 59f 64f
9:42 6 9 mph 1013.6mb 59f 62f
9:36 9 11 mph 1013.5mb 59f 62f
9:30 11 13 mph 1013.5mb 60f 64f
9:24 6 10 mph 1013.3mb 59f 71f
9:18 9 10 mph 1013.3mb 59f 70f
9:06 8
mph
1013.5mb 59f 68f
9:00 7 8 mph 1013.6mb 59f 66f
8:54 8 9 mph 1013.6mb 59f 67f
8:48 8 9 mph 1013.6mb 59f 64f
8:42 8 9 mph 1013.6mb 59f 64f
8:36 7 8 mph 1013.6mb 59f 62f
8:30 6 7 mph 1013.7mb 59f 65f
8:24 6 7 mph 1013.7mb 59f 66f
8:18 5 6 mph 1013.9mb 59f 65f
8:06 6 7 mph 1014mb 59f 66f
8:00 3 6 mph 1014mb 59f 65f
7:54 5
mph
1014mb 59f 65f
7:48 5 7 mph 1014mb 59f 64f
7:42 5 7 mph 1014mb 59f 63f
7:36 3 6 mph 1014mb 59f 63f
7:30 5 6 mph 1014mb 59f 62f
7:24 5 6 mph 1014mb 59f 62f
7:18 3 6 mph 1014mb 58f 62f
7:06 6 8 mph 1014mb 58f 61f
7:00 7 9 mph 1013.9mb 58f 61f
6:30 7 9 mph 1013.8mb 58f 60f
6:24 7 8 mph 1013.8mb 58f 60f
6:18 6 7 mph 1013.8mb 58f 60f
6:12 3 5 mph 1013.9mb 58f 60f
6:06 2 5 mph 1013.9mb 58f 60f
6:00 5 8 mph 1013.9mb 57f 60f
5:54 6 8 mph 1013.8mb 57f 60f
5:48 6 7 mph 1013.7mb 57f 60f
5:42 5 8 mph 1013.7mb 57f 60f
5:36 6 11 mph 1013.8mb 57f 60f
5:30 8 13 mph 1013.6mb 57f 60f
5:24 7 11 mph 1013.5mb 57f 60f
5:18 8 11 mph 1013.6mb 57f 60f
5:12 7 10 mph 1013.6mb 57f 60f
5:06 7 10 mph 1013.6mb 57f 60f
5:00 9 13 mph 1013.5mb 57f 60f
4:54 10 13 mph 1013.5mb 57f 60f
4:48 10 13 mph 1013.5mb 57f 60f
4:42 9 11 mph 1013.5mb 57f 61f
4:36 7 10 mph 1013.5mb 57f 61f
4:30 6 9 mph 1013.4mb 57f 61f
4:24 7 10 mph 1013.4mb 57f 62f
4:18 9 14 mph 1013.4mb 57f 62f
4:12 9 11 mph 1013.4mb 58f 62f
4:06 9 11 mph 1013.5mb 58f 63f
4:00 9 10 mph 1013.5mb 58f 63f
3:54 8 10 mph 1013.4mb 58f 63f
3:48 7 10 mph 1013.4mb 58f 64f
3:42 6 7 mph 1013.5mb 58f 64f
3:36 8 10 mph 1013.6mb 58f 64f
3:30 7 11 mph 1013.6mb 58f 67f
3:24 5 8 mph 1013.7mb 58f 65f
3:18 8 9 mph 1013.7mb 58f 65f
3:12 6 8 mph 1013.7mb 58f 65f
3:06 7 9 mph 1013.7mb 58f 66f
3:00 6 8 mph 1013.7mb 58f 67f
2:54 2 10 mph 1013.7mb 58f 70f
2:48 9 14 mph 1013.6mb 58f 72f
2:42 10 14 mph 1013.6mb 58f 71f
2:36 8 11 mph 1013.7mb 58f 70f
2:30 6 8 mph 1014mb 58f 67f
2:24 2 8 mph 1014mb 58f 66f
2:18 5 8 mph - - -
2:12 5 10 mph 1014.3mb 59f 70f
2:06 3 9 mph 1014.2mb 59f 70f
2:00 7 10 mph 1014.2mb 59f 68f
1:54 6 11 mph 1014.3mb 59f 70f
1:48 8 14 mph 1014.2mb 59f 72f
1:42 13 18 mph 1014.1mb 59f 72f
1:36 14 18 mph 1014.2mb 59f 72f
1:30 13 18 mph 1014.2mb 59f 72f
1:24 13 17 mph 1014.4mb 59f 72f
1:18 6 8 mph 1014.5mb 59f 71f
1:12 7 9 mph 1014.5mb 59f 70f
1:06 2 6 mph 1014.5mb 60f 71f
1:00 2 9 mph 1014.6mb 60f 72f
12:54 2 7 mph 1014.7mb 60f 71f
12:48 5 10 mph 1014.7mb 60f 72f
12:42 5 6 mph 1014.7mb 60f 72f
12:36 3 10 mph 1014.8mb 60f 72f
12:30 5 8 mph 1014.7mb 60f 71f
12:24 5 8 mph 1014.7mb 60f 71f
12:18 6 8 mph 1014.7mb 60f 71f
12:12 5 6 mph 1014.9mb 61f 71f
12:06 3 8 mph 1014.9mb 61f 71f
12:00 8 14 mph 1014.8mb 61f 71f
Do 04/20 11:54 13 15 mph 1014.8mb 61f 72f
11:48 9 17 mph 1014.8mb 61f 72f
11:42 15 20 mph 1014.7mb 61f 72f
11:36 14 18 mph 1014.7mb 61f 73f
11:30 15 17 mph 1014.8mb 61f 73f
11:24 9 11 mph 1015.1mb 62f 73f
11:18 8 10 mph 1015.2mb 62f 73f
11:12 10
mph
1015.2mb 61f 73f
11:06 8 9 mph 1015.2mb 61f 72f
11:00 5 7 mph 1015.3mb 62f 72f
10:54 6
mph
1015.2mb 62f 71f
10:48 2 5 mph 1015.2mb 62f 72f
10:42 5 9 mph - - -
10:36 7 8 mph - - -
10:30 8 9 mph 1015.2mb 63f 72f
10:24 10 13 mph 1015.2mb 63f 72f
10:18 11 13 mph 1015.4mb 63f 71f
10:12 13 14 mph 1015.4mb 63f 72f
10:06 10 14 mph 1015.5mb 63f 72f
10:00 6 8 mph 1015.4mb 63f 73f
9:54 6 10 mph 1015.4mb 63f 73f
9:48 9 14 mph 1015.4mb 63f 73f
9:42 13 17 mph 1015.2mb 63f 74f
9:36 13 17 mph 1015.1mb 63f 74f
9:30 16 20 mph 1015mb 63f 74f
9:24 15 23 mph 1014.9mb 63f 73f
9:18 21 25 mph 1014.7mb 63f 74f
9:12 20 23 mph 1014.8mb 63f 73f
9:06 18 23 mph 1015mb 63f 73f
9:00 10 14 mph 1015.2mb 63f 72f
8:54 8 10 mph 1015.2mb 63f 72f
8:48 6 8 mph - - -
8:42 3 7 mph 1015.1mb 63f 71f
8:36 5 9 mph 1015.2mb 64f 70f
8:30 7 11 mph 1015mb 63f 69f
8:24 6 8 mph 1014.9mb 63f 66f
8:18 5 6 mph 1014.7mb 64f 65f
8:12 1 8 mph 1014.7mb 63f 65f
8:06 8 13 mph 1014.7mb 63f 64f
8:00 9 11 mph 1014.8mb 64f 62f
7:54 5 9 mph 1014.9mb 64f 62f
7:48 10 14 mph 1014.7mb 64f 62f
7:42 13 16 mph 1014.4mb 64f 61f
7:36 15 16 mph 1014.5mb 64f 61f
7:30 15 17 mph 1014.6mb 64f 61f
7:24 14 15 mph 1014.6mb 64f 61f
7:18 8 10 mph - - -
7:12 6 7 mph 1014.8mb 64f 62f
7:06 6 9 mph 1014.9mb 64f 62f
7:00 7 9 mph 1014.9mb 64f 62f
6:54 5 7 mph 1015mb 64f 62f
6:48 7 9 mph - - -
6:42 7 13 mph 1014.9mb 64f 62f
6:36 11 15 mph 1014.8mb 64f 62f
6:30 11 15 mph 1014.7mb 64f 62f
6:24 13 18 mph 1015mb 64f 62f
6:18 16 20 mph - - -
6:12 10 16 mph 1015.3mb 64f 62f
6:06 7 8 mph 1015.4mb 64f 63f
6:00 6 11 mph 1015.5mb 64f 63f
5:54 9 18 mph 1015.2mb 64f 63f
5:48 15 21 mph - - -
5:42 16 18 mph 1015.2mb 64f 62f
5:36 13 16 mph 1015.3mb 64f 62f
5:30 11 15 mph 1015.5mb 64f 62f
5:24 11 15 mph 1015.5mb 64f 62f
5:18 14 17 mph - - -
5:12 15 17 mph 1015.3mb 64f 62f
5:06 17 21 mph 1015.3mb 64f 62f
5:00 20 24 mph 1015.2mb 64f 62f
4:54 22 26 mph 1015.2mb 64f 62f
4:48 24 29 mph - - -
4:42 23 28 mph 1014.9mb 64f 62f
4:36 25 30 mph 1015.2mb 64f 63f
4:30 24 26 mph 1015.3mb 64f 62f
4:24 24 29 mph 1015.4mb 64f 62f
4:18 23 25 mph - - -
4:12 22 25 mph 1015.7mb 64f 62f
4:06 22 24 mph 1015.6mb 64f 63f
4:00 21 23 mph 1015.7mb 64f 63f
3:54 21 23 mph 1015.7mb 64f 63f
3:48 20 22 mph - - -
3:42 20 23 mph 1016mb 64f 62f
3:36 21 24 mph 1015.8mb 64f 62f
3:30 22 23 mph 1015.9mb 64f 62f
3:24 20 22 mph 1016.2mb 64f 62f
3:18 16 18 mph - - -
3:12 15 17 mph 1016.4mb 64f 63f
3:06 15 16 mph 1016.5mb 64f 63f
3:00 14 16 mph 1016.6mb 64f 63f
2:54 11 14 mph 1016.6mb 64f 63f
2:48 10 14 mph - - -
2:42 14 17 mph 1017mb 64f 63f
2:36 16 18 mph 1017.1mb 64f 62f
2:30 15 18 mph 1017.2mb 64f 62f
2:24 15 17 mph 1017.3mb 64f 62f
2:18 14 16 mph 1017.3mb 64f 62f
2:12 13 15 mph 1017.5mb 64f 62f
2:06 13 16 mph 1017.6mb 64f 62f
2:00 14 16 mph 1017.6mb 64f 61f
1:54 15 17 mph 1017.7mb 64f 61f
1:48 15 18 mph 1017.7mb 63f 61f
1:42 14 18 mph 1017.8mb 63f 61f
1:36 17 18 mph 1017.8mb 63f 61f
1:30 15 18 mph 1017.8mb 63f 61f
1:24 14 17 mph 1017.8mb 63f 61f
1:18 15 17 mph 1017.9mb 63f 62f
1:12 11 14 mph 1018.1mb 63f 61f
1:06 8 11 mph 1018.1mb 63f 62f
1:00 9 11 mph 1018.1mb 63f 61f
12:54 8 11 mph 1018.2mb 63f 61f
12:48 9 11 mph 1018.2mb 63f 61f
12:42 11 13 mph 1018.2mb 63f 61f
12:36 10 13 mph 1018.4mb 63f 61f
12:30 10 11 mph 1018.4mb 63f 60f
12:24 9 10 mph 1018.7mb 63f 60f
12:18 9 10 mph 1018.7mb 63f 60f
12:12 7 9 mph 1018.8mb 62f 60f
12:06 8 11 mph 1018.9mb 62f 60f
12:00 10 11 mph 1019mb 62f 60f
11:54 9 10 mph 1019.1mb 62f 60f
11:48 9 10 mph 1019.1mb 62f 60f
11:42 8 10 mph 1019.1mb 62f 60f
11:36 9 10 mph 1019.2mb 62f 60f
11:30 8 9 mph 1019.4mb 62f 60f
11:24 9 10 mph 1019.4mb 62f 60f
11:18 9
mph
1019.4mb 62f 60f
11:06 7 8 mph 1019.4mb 62f 60f
11:00 7 8 mph 1019.3mb 62f 60f
10:54 7 9 mph 1019.4mb 62f 60f
10:48 9 10 mph 1019.3mb 62f 60f
10:42 8
mph
1019.3mb 62f 60f
10:36 9 10 mph 1019.3mb 62f 60f
10:30 9
mph
1019.3mb 62f 60f
10:24 8 10 mph 1019.2mb 62f 60f
10:18 9 10 mph 1019.2mb 62f 60f
10:12 8 9 mph 1019.3mb 62f 60f
10:06 8 9 mph 1019.3mb 62f 60f
10:00 7 8 mph 1019.3mb 61f 60f
9:54 7 8 mph 1019.4mb 61f 60f
9:48 6 7 mph 1019.4mb 61f 60f
9:42 7 8 mph 1019.4mb 61f 60f
9:36 7
mph
1019.4mb 61f 60f
9:30 6
mph
1019.4mb 61f 60f
9:24 6
mph
1019.4mb 61f 60f
9:18 5 6 mph 1019.4mb 61f 60f
9:12 3 5 mph 1019.4mb 61f 60f
9:06 5
mph
1019.4mb 61f 60f
9:00 5
mph
1019.4mb 60f 60f
8:54 5 6 mph 1019.3mb 60f 60f
8:48 6
mph
1019.3mb 60f 59f
8:42 5 6 mph 1019.3mb 60f 59f
8:36 5 6 mph 1019.5mb 60f 59f
8:30 5 6 mph 1019.4mb 60f 60f
8:24 5 6 mph 1019.3mb 60f 60f
8:18 2 3 mph 1019.2mb 60f 60f
8:12 2 3 mph 1019.2mb 60f 60f
8:06 2 3 mph 1019.1mb 60f 60f
8:00 2 3 mph 1019.2mb 60f 60f
7:54 3
mph
1019.2mb 60f 60f
7:48 2 5 mph - - -
7:42 2 3 mph 1019.1mb 60f 60f
7:36 3 5 mph 1019.2mb 60f 59f
7:30 3 6 mph 1019.1mb 60f 59f
7:24 2 5 mph 1019.1mb 60f 59f
7:18 3 5 mph 1019mb 60f 59f
7:12 3 6 mph 1019mb 60f 58f
7:06 3 5 mph 1018.9mb 60f 58f
7:00 3 6 mph 1018.9mb 60f 58f
6:54 3
mph
1018.9mb 60f 59f
6:48 2
mph
1018.7mb 60f 58f
6:42  -  2 mph 1018.7mb 60f 58f
6:36  -  1 mph 1018.7mb 60f 58f
6:30  -  1 mph 1018.6mb 60f 57f
6:24  -  3 mph 1018.4mb 60f 57f
6:18 2 3 mph - - -
6:12 1 3 mph 1018.2mb 60f 57f
6:06 2 3 mph 1018.2mb 60f 57f
6:00 1 2 mph 1018.2mb 60f 57f
5:54 2 3 mph 1018.2mb 60f 58f
5:48 3
mph
1018.2mb 60f 58f
5:42 1 2 mph 1018.2mb 60f 57f
5:36 1 3 mph 1018.2mb 60f 57f
5:30 1 2 mph 1018.2mb 60f 57f
5:24  -  2 mph 1018.3mb 60f 57f
5:18 1 2 mph 1018.4mb 60f 58f
5:12  -  1 mph 1018.4mb 60f 57f
5:06  -  1 mph 1018.4mb 60f 57f
5:00 2 5 mph 1018.4mb 60f 57f
4:54 3
mph
1018.5mb 60f 57f
4:48 2 3 mph - - -
4:42 2 3 mph 1018.6mb 60f 58f
4:36 1 3 mph 1018.6mb 60f 58f
4:30 3 5 mph 1018.6mb 60f 59f
4:24 3 5 mph 1018.5mb 60f 59f
4:18 3 5 mph 1018.5mb 60f 59f
4:12 5 7 mph 1018.5mb 60f 59f
4:06 6 7 mph 1018.5mb 60f 59f
4:00 6 7 mph 1018.5mb 60f 59f
3:54 6 7 mph 1018.4mb 60f 59f
3:48 2 6 mph 1018.4mb 60f 58f
3:42 3 6 mph 1018.4mb 60f 58f
3:36 5 7 mph 1018.4mb 60f 58f
3:30 5 6 mph 1018.3mb 60f 58f
3:24 3 5 mph 1018.4mb 60f 58f
3:18 5
mph
1018.4mb 60f 59f
3:12 3
mph
1018.4mb 60f 59f
3:06 3
mph
1018.5mb 60f 59f
3:00 3
mph
1018.4mb 60f 59f
2:54  -  1 mph 1018.4mb 60f 58f
2:48  -  mph 1018.4mb 60f 59f
2:42  -  mph 1018.5mb 60f 59f
2:36  -  2 mph 1018.6mb 60f 59f
2:30  -  1 mph 1018.6mb 60f 59f
2:24  -  1 mph 1018.6mb 60f 59f
2:18  -  2 mph 1018.6mb 60f 60f
2:12 2 5 mph 1018.6mb 60f 60f
2:06 2 3 mph 1018.7mb 60f 60f
2:00 2 3 mph 1018.6mb 60f 60f
1:54 2 5 mph 1018.7mb 60f 60f
1:48 3 5 mph 1018.7mb 60f 60f
1:42 3 5 mph 1018.7mb 60f 60f
1:36 3 6 mph 1018.7mb 61f 60f
1:30 5 7 mph 1018.7mb 61f 60f
1:24 6 7 mph 1018.7mb 61f 60f
1:18 6 8 mph 1018.8mb 61f 60f
1:12 6 7 mph 1018.8mb 61f 60f
1:06 5 7 mph 1018.9mb 61f 60f
1:00 5 9 mph 1018.9mb 61f 60f
12:54 5 6 mph 1018.9mb 61f 60f
12:48 6 8 mph 1019mb 61f 60f
12:42 5 7 mph 1019mb 61f 60f
12:36 5 7 mph 1019.1mb 61f 60f
12:30 5 8 mph 1019.1mb 61f 60f
12:24 5 7 mph 1019mb 61f 60f
12:18 6 8 mph 1019.1mb 61f 60f
12:12 5 7 mph 1019.1mb 62f 60f
12:06 5 7 mph 1019mb 61f 60f
12:00 7 10 mph 1019mb 62f 61f
Mi 04/19 11:54 7 9 mph 1018.9mb 62f 61f
11:48 6 8 mph 1019mb 62f 61f
11:42 7 10 mph 1019.1mb 62f 61f
11:36 7 10 mph 1019mb 62f 61f
11:30 8 10 mph 1019.1mb 62f 61f
11:24 8 10 mph 1019.1mb 62f 61f
11:18 8 10 mph 1019mb 62f 61f
11:12 9 10 mph 1019.1mb 62f 61f
11:06 9 11 mph 1019.2mb 62f 62f
11:00 10 11 mph 1019.1mb 62f 62f
10:54 9 13 mph 1019.1mb 62f 62f
10:48 9 13 mph 1019mb 62f 62f
10:42 10 13 mph 1018.9mb 63f -
10:36 10 13 mph 1018.8mb 62f -
10:30 9 11 mph 1018.7mb 63f 62f
10:24 9 10 mph 1018.7mb 63f 62f
10:18 7 11 mph 1018.7mb 63f 62f
10:12 9 13 mph 1018.7mb 64f 62f
10:06 8 11 mph 1018.7mb 64f 62f
10:00 8 10 mph 1018.7mb 64f 62f
9:54 8 10 mph 1018.8mb 64f 62f
9:48 8 9 mph 1018.8mb 64f 62f
9:42 7 8 mph 1018.8mb 64f 62f
9:36 7 9 mph 1018.7mb 64f 63f
9:30 6 7 mph 1018.6mb 64f 62f
9:24 5 7 mph 1018.6mb 64f 62f
9:18 5 7 mph 1018.5mb 64f 62f
9:12 6 8 mph 1018.4mb 64f 62f
9:06 6 7 mph 1018.4mb 64f 62f
9:00 2 3 mph 1018.3mb 64f 61f
8:54 1 2 mph 1018.3mb 64f 61f
8:48  -  1 mph 1018.2mb 64f 62f
8:42  -  1 mph 1018.1mb 64f 61f
8:36 2
mph
1018.1mb 64f 61f
8:30 1 3 mph 1018mb 64f 61f
8:24 1 3 mph 1017.9mb 64f 62f
8:18 2 3 mph 1017.8mb 64f 61f
8:12 3 5 mph 1017.7mb 64f 61f
8:06 5 6 mph 1017.7mb 64f 61f
8:00 5 8 mph 1017.7mb 64f 61f
7:54 6 8 mph 1017.6mb 64f 61f
7:48 8 10 mph 1017.6mb 64f 61f
7:42 10 13 mph 1017.6mb 64f 61f
7:36 11 14 mph 1017.6mb 64f 61f
7:30 14 15 mph 1017.6mb 64f 61f
7:24 13 15 mph 1017.7mb 64f 61f
7:18 13 16 mph - - -
7:12 15 16 mph 1017.7mb 64f 61f
7:06 14 17 mph 1017.6mb 64f 62f
7:00 16 18 mph 1017.6mb 64f 62f
6:54 15 18 mph 1017.7mb 64f 61f
6:48 17 23 mph - - -
6:42 21 23 mph 1017.7mb 64f 62f
6:36 22 24 mph 1017.8mb 64f 62f
6:30 21 23 mph 1017.7mb 64f 62f
6:24 18 22 mph 1017.7mb 64f 62f
6:18 20 24 mph - - -
6:12 22 25 mph 1017.8mb 63f 62f
6:06 18 22 mph 1017.8mb 64f 62f
6:00 18 22 mph 1017.8mb 64f 63f
5:54 15 17 mph 1017.8mb 64f 63f
5:48 10 15 mph - - -
5:42 9 11 mph 1017.9mb 63f 63f
5:36 9 13 mph 1018mb 63f 63f
5:30 9 11 mph 1018mb 63f 63f
5:24 8 10 mph 1018mb 63f 62f
5:18 8 9 mph - - -
5:12 7 8 mph 1018mb 63f 62f
5:06 7 8 mph 1018.1mb 64f 62f
5:00 7 9 mph 1018.1mb 64f 62f
4:54 7 9 mph 1018.2mb 63f 61f
4:48 7 10 mph - - -
4:42 9 13 mph 1018.2mb 64f 61f
4:36 11 13 mph 1018.3mb 64f 61f
4:30 11 13 mph 1018.4mb 64f 60f
4:24 13 14 mph 1018.5mb 64f 60f
4:18 13 14 mph - - -
4:12 14 15 mph 1018.6mb 64f 60f
4:06 13 15 mph 1018.7mb 64f 60f
4:00 14 15 mph 1018.8mb 64f 60f